createdAt,value
2023-04-20T00:00:09.092Z,25.21
2023-04-20T00:01:09.174Z,25.24
2023-04-20T00:02:09.227Z,25.24
2023-04-20T00:03:09.158Z,25.21
2023-04-20T00:04:09.231Z,25.23
2023-04-20T00:05:09.117Z,25.18
2023-04-20T00:06:09.101Z,25.21
2023-04-20T00:07:09.038Z,25.21
2023-04-20T00:08:09.096Z,25.21
2023-04-20T00:09:09.148Z,25.23
2023-04-20T00:10:09.190Z,25.24
2023-04-20T00:11:09.293Z,25.23
2023-04-20T00:12:09.261Z,25.20
2023-04-20T00:13:09.339Z,25.20
2023-04-20T00:14:09.421Z,25.23
2023-04-20T00:15:09.434Z,25.23
2023-04-20T00:16:09.515Z,25.20
2023-04-20T00:17:09.658Z,25.20
2023-04-20T00:18:09.619Z,25.21
2023-04-20T00:19:09.676Z,25.23
2023-04-20T00:20:09.715Z,25.21
2023-04-20T00:21:09.736Z,25.23
2023-04-20T00:22:09.821Z,25.23
2023-04-20T00:23:09.830Z,25.23
2023-04-20T00:24:10.062Z,25.23
2023-04-20T00:25:10.045Z,25.20
2023-04-20T00:26:10.048Z,25.23
2023-04-20T00:27:10.051Z,25.21
2023-04-20T00:28:10.095Z,25.23
2023-04-20T00:29:10.169Z,25.23
2023-04-20T00:30:10.210Z,25.21
2023-04-20T00:31:10.298Z,25.18
2023-04-20T00:32:10.329Z,25.20
2023-04-20T00:33:10.379Z,25.21
2023-04-20T00:34:10.423Z,25.18
2023-04-20T00:35:10.503Z,25.20
2023-04-20T00:36:10.525Z,25.21
2023-04-20T00:37:10.552Z,25.21
2023-04-20T00:38:10.657Z,25.18
2023-04-20T00:39:10.677Z,25.21
2023-04-20T00:40:10.776Z,25.18
2023-04-20T00:41:10.798Z,25.20
2023-04-20T00:42:10.864Z,25.18
2023-04-20T00:43:10.878Z,25.20
2023-04-20T00:44:10.944Z,25.20
2023-04-20T00:45:11.002Z,25.20
2023-04-20T00:46:11.102Z,25.23
2023-04-20T00:47:11.100Z,25.21
2023-04-20T00:48:11.173Z,25.20
2023-04-20T00:49:11.238Z,25.20
2023-04-20T00:50:11.249Z,25.20
2023-04-20T00:51:11.349Z,25.20
2023-04-20T00:52:11.410Z,25.17
2023-04-20T00:53:11.423Z,25.18
2023-04-20T00:54:11.500Z,25.18
2023-04-20T00:55:11.574Z,25.20
2023-04-20T00:56:11.590Z,25.18
2023-04-20T00:57:11.696Z,25.18
2023-04-20T00:58:11.690Z,25.21
2023-04-20T00:59:12.080Z,25.18
2023-04-20T01:00:11.808Z,25.18
2023-04-20T01:01:11.956Z,25.17
2023-04-20T01:02:12.057Z,25.20
2023-04-20T01:03:12.168Z,25.17
2023-04-20T01:04:12.135Z,25.17
2023-04-20T01:05:12.110Z,25.17
2023-04-20T01:06:12.227Z,25.17
2023-04-20T01:07:12.233Z,25.18
2023-04-20T01:08:12.298Z,25.17
2023-04-20T01:09:12.342Z,25.17
2023-04-20T01:10:12.472Z,25.17
2023-04-20T01:11:12.458Z,25.16
2023-04-20T01:12:12.495Z,25.17
2023-04-20T01:13:12.621Z,25.17
2023-04-20T01:14:12.624Z,25.14
2023-04-20T01:15:12.729Z,25.17
2023-04-20T01:16:12.860Z,25.18
2023-04-20T01:17:12.822Z,25.17
2023-04-20T01:18:12.925Z,25.17
2023-04-20T01:19:12.957Z,25.16
2023-04-20T01:20:13.051Z,25.16
2023-04-20T01:21:13.157Z,25.13
2023-04-20T01:22:13.169Z,25.13
2023-04-20T01:23:13.198Z,25.16
2023-04-20T01:24:13.253Z,25.17
2023-04-20T01:25:13.328Z,25.13
2023-04-20T01:26:13.381Z,25.14
2023-04-20T01:27:13.430Z,25.16
2023-04-20T01:28:13.502Z,25.14
2023-04-20T01:29:13.544Z,25.13
2023-04-20T01:30:13.624Z,25.11
2023-04-20T01:31:13.716Z,25.14
2023-04-20T01:32:13.698Z,25.14
2023-04-20T01:33:13.785Z,25.14
2023-04-20T01:34:13.853Z,25.14
2023-04-20T01:35:13.890Z,25.14
2023-04-20T01:36:13.961Z,25.14
2023-04-20T01:37:14.027Z,25.14
2023-04-20T01:38:14.073Z,25.14
2023-04-20T01:39:14.129Z,25.11
2023-04-20T01:40:14.229Z,25.14
2023-04-20T01:41:14.271Z,25.13
2023-04-20T01:42:14.317Z,25.11
2023-04-20T01:43:14.364Z,25.11
2023-04-20T01:44:14.483Z,25.11
2023-04-20T01:45:14.535Z,25.13
2023-04-20T01:46:14.594Z,25.13
2023-04-20T01:47:14.656Z,25.11
2023-04-20T01:48:14.723Z,25.11
2023-04-20T01:49:14.793Z,25.10
2023-04-20T01:50:14.813Z,25.13
2023-04-20T01:51:14.875Z,25.11
2023-04-20T01:52:14.955Z,25.11
2023-04-20T01:53:15.041Z,25.13
2023-04-20T01:54:15.029Z,25.09
2023-04-20T01:55:15.161Z,25.13
2023-04-20T01:56:15.195Z,25.11
2023-04-20T01:57:15.268Z,25.11
2023-04-20T01:58:15.345Z,25.11
2023-04-20T01:59:15.438Z,25.10
2023-04-20T02:00:15.458Z,25.10
2023-04-20T02:01:15.531Z,25.09
2023-04-20T02:02:15.606Z,25.11
2023-04-20T02:03:15.717Z,25.13
2023-04-20T02:04:15.825Z,25.10
2023-04-20T02:05:15.696Z,25.11
2023-04-20T02:06:15.754Z,25.09
2023-04-20T02:07:15.838Z,25.09
2023-04-20T02:08:15.916Z,25.10
2023-04-20T02:09:16.178Z,25.10
2023-04-20T02:10:16.036Z,25.09
2023-04-20T02:11:16.129Z,25.10
2023-04-20T02:12:16.164Z,25.13
2023-04-20T02:13:16.194Z,25.09
2023-04-20T02:14:16.297Z,25.10
2023-04-20T02:15:16.381Z,25.07
2023-04-20T02:16:16.434Z,25.13
2023-04-20T02:17:16.523Z,25.11
2023-04-20T02:18:16.551Z,25.10
2023-04-20T02:19:16.847Z,25.09
2023-04-20T02:20:16.693Z,25.09
2023-04-20T02:21:16.695Z,25.09
2023-04-20T02:22:16.787Z,25.10
2023-04-20T02:23:16.846Z,25.10
2023-04-20T02:24:16.889Z,25.09
2023-04-20T02:25:17.005Z,25.06
2023-04-20T02:26:17.040Z,25.07
2023-04-20T02:27:17.077Z,25.10
2023-04-20T02:28:17.253Z,25.09
2023-04-20T02:29:17.453Z,25.09
2023-04-20T02:30:17.265Z,25.10
2023-04-20T02:31:17.403Z,25.10
2023-04-20T02:32:17.410Z,25.06
2023-04-20T02:33:17.514Z,25.07
2023-04-20T02:34:17.505Z,25.06
2023-04-20T02:35:17.574Z,25.09
2023-04-20T02:36:17.637Z,25.07
2023-04-20T02:37:17.688Z,25.07
2023-04-20T02:38:17.800Z,25.10
2023-04-20T02:39:17.922Z,25.07
2023-04-20T02:40:17.876Z,25.09
2023-04-20T02:41:17.911Z,25.07
2023-04-20T02:42:17.993Z,25.06
2023-04-20T02:43:18.124Z,25.05
2023-04-20T02:44:18.115Z,25.06
2023-04-20T02:45:18.185Z,25.07
2023-04-20T02:46:18.298Z,25.07
2023-04-20T02:47:18.330Z,25.06
2023-04-20T02:48:18.377Z,25.06
2023-04-20T02:49:18.714Z,25.07
2023-04-20T02:50:18.493Z,25.06
2023-04-20T02:51:18.576Z,25.07
2023-04-20T02:52:18.628Z,25.07
2023-04-20T02:53:18.693Z,25.07
2023-04-20T02:54:18.734Z,25.07
2023-04-20T02:55:18.804Z,25.06
2023-04-20T02:56:18.834Z,25.05
2023-04-20T02:57:18.908Z,25.05
2023-04-20T02:58:18.994Z,25.05
2023-04-20T02:59:19.306Z,25.03
2023-04-20T03:00:19.099Z,25.06
2023-04-20T03:01:19.197Z,25.03
2023-04-20T03:02:19.318Z,25.05
2023-04-20T03:03:19.547Z,25.06
2023-04-20T03:04:19.584Z,25.05
2023-04-20T03:05:19.420Z,25.05
2023-04-20T03:06:19.488Z,25.05
2023-04-20T03:07:19.571Z,25.05
2023-04-20T03:08:19.655Z,25.05
2023-04-20T03:09:19.787Z,25.03
2023-04-20T03:10:19.758Z,25.05
2023-04-20T03:11:19.813Z,25.06
2023-04-20T03:12:19.871Z,25.03
2023-04-20T03:13:19.949Z,25.03
2023-04-20T03:14:20.033Z,25.03
2023-04-20T03:15:20.055Z,25.05
2023-04-20T03:16:20.164Z,25.05
2023-04-20T03:17:20.206Z,25.03
2023-04-20T03:18:20.225Z,25.03
2023-04-20T03:19:20.267Z,25.02
2023-04-20T03:20:20.361Z,25.02
2023-04-20T03:21:20.414Z,25.05
2023-04-20T03:22:20.464Z,25.02
2023-04-20T03:23:20.506Z,25.03
2023-04-20T03:24:20.579Z,25.02
2023-04-20T03:25:20.645Z,25.03
2023-04-20T03:26:20.682Z,25.00
2023-04-20T03:27:20.813Z,25.00
2023-04-20T03:28:20.826Z,25.02
2023-04-20T03:29:20.873Z,25.02
2023-04-20T03:30:20.913Z,25.02
2023-04-20T03:31:21.024Z,25.03
2023-04-20T03:32:21.108Z,25.03
2023-04-20T03:33:21.135Z,25.05
2023-04-20T03:34:21.188Z,25.00
2023-04-20T03:35:21.225Z,25.00
2023-04-20T03:36:21.361Z,25.00
2023-04-20T03:37:21.362Z,25.00
2023-04-20T03:38:21.399Z,25.02
2023-04-20T03:39:21.457Z,25.02
2023-04-20T03:40:21.517Z,25.00
2023-04-20T03:41:21.543Z,25.00
2023-04-20T03:42:21.715Z,25.02
2023-04-20T03:43:21.689Z,25.02
2023-04-20T03:44:21.723Z,25.02
2023-04-20T03:45:21.783Z,24.99
2023-04-20T03:46:23.212Z,25.00
2023-04-20T03:47:21.950Z,25.02
2023-04-20T03:48:21.934Z,25.00
2023-04-20T03:49:21.959Z,25.02
2023-04-20T03:50:22.069Z,25.02
2023-04-20T03:51:22.048Z,25.00
2023-04-20T03:52:22.100Z,24.99
2023-04-20T03:53:22.120Z,25.02
2023-04-20T03:54:22.163Z,25.00
2023-04-20T03:55:22.202Z,24.97
2023-04-20T03:56:22.304Z,24.97
2023-04-20T03:57:22.294Z,25.02
2023-04-20T03:58:22.342Z,24.99
2023-04-20T03:59:22.374Z,24.99
2023-04-20T04:00:22.435Z,25.00
2023-04-20T04:01:22.432Z,25.00
2023-04-20T04:02:22.806Z,24.99
2023-04-20T04:03:22.787Z,25.00
2023-04-20T04:04:22.893Z,25.00
2023-04-20T04:05:22.501Z,24.97
2023-04-20T04:06:22.477Z,24.99
2023-04-20T04:07:22.516Z,25.00
2023-04-20T04:08:22.526Z,24.99
2023-04-20T04:09:22.522Z,24.97
2023-04-20T04:10:22.610Z,24.99
2023-04-20T04:11:22.625Z,24.97
2023-04-20T04:12:22.559Z,24.97
2023-04-20T04:13:22.552Z,24.96
2023-04-20T04:14:22.548Z,24.99
2023-04-20T04:15:22.591Z,24.97
2023-04-20T04:16:22.718Z,24.97
2023-04-20T04:17:22.708Z,24.99
2023-04-20T04:18:22.663Z,24.99
2023-04-20T04:19:22.743Z,24.96
2023-04-20T04:20:22.768Z,24.94
2023-04-20T04:21:22.762Z,24.97
2023-04-20T04:22:22.724Z,24.97
2023-04-20T04:23:22.828Z,24.96
2023-04-20T04:24:22.783Z,24.94
2023-04-20T04:25:22.732Z,24.96
2023-04-20T04:26:22.781Z,24.99
2023-04-20T04:27:22.841Z,24.99
2023-04-20T04:28:22.834Z,24.97
2023-04-20T04:29:22.885Z,24.99
2023-04-20T04:30:22.874Z,24.99
2023-04-20T04:31:22.945Z,24.99
2023-04-20T04:32:22.954Z,24.97
2023-04-20T04:33:22.986Z,24.99
2023-04-20T04:34:22.974Z,24.99
2023-04-20T04:35:23.037Z,25.00
2023-04-20T04:36:23.058Z,25.00
2023-04-20T04:37:23.174Z,24.99
2023-04-20T04:38:23.221Z,25.02
2023-04-20T04:39:23.219Z,24.99
2023-04-20T04:40:23.242Z,25.02
2023-04-20T04:41:23.333Z,25.02
2023-04-20T04:42:23.342Z,25.02
2023-04-20T04:43:23.362Z,24.99
2023-04-20T04:44:23.451Z,25.00
2023-04-20T04:45:23.462Z,25.02
2023-04-20T04:46:23.520Z,25.00
2023-04-20T04:47:23.510Z,25.02
2023-04-20T04:48:23.555Z,25.02
2023-04-20T04:49:23.565Z,24.99
2023-04-20T04:50:23.628Z,25.00
2023-04-20T04:51:23.637Z,24.99
2023-04-20T04:52:23.654Z,24.99
2023-04-20T04:53:23.640Z,24.97
2023-04-20T04:54:23.747Z,24.99
2023-04-20T04:55:23.655Z,24.97
2023-04-20T04:56:23.685Z,25.00
2023-04-20T04:57:23.718Z,24.96
2023-04-20T04:58:35.853Z,24.97
2023-04-20T04:59:23.716Z,24.97
2023-04-20T05:00:23.702Z,24.99
2023-04-20T05:01:23.730Z,24.97
2023-04-20T05:02:23.787Z,24.96
2023-04-20T05:03:23.959Z,24.97
2023-04-20T05:04:23.749Z,24.99
2023-04-20T05:05:23.671Z,24.97
2023-04-20T05:06:23.696Z,24.97
2023-04-20T05:07:23.689Z,24.97
2023-04-20T05:08:23.701Z,24.97
2023-04-20T05:09:23.721Z,24.96
2023-04-20T05:10:23.641Z,24.97
2023-04-20T05:11:23.643Z,24.94
2023-04-20T05:12:23.621Z,24.97
2023-04-20T05:13:23.606Z,24.96
2023-04-20T05:14:23.678Z,24.94
2023-04-20T05:15:23.672Z,24.94
2023-04-20T05:16:23.756Z,24.96
2023-04-20T05:17:23.634Z,24.99
2023-04-20T05:18:23.586Z,24.96
2023-04-20T05:19:23.553Z,24.96
2023-04-20T05:20:23.574Z,24.97
2023-04-20T05:21:23.607Z,24.96
2023-04-20T05:22:23.563Z,24.93
2023-04-20T05:23:23.575Z,24.97
2023-04-20T05:24:23.579Z,24.96
2023-04-20T05:25:23.550Z,24.97
2023-04-20T05:26:23.549Z,24.94
2023-04-20T05:27:23.550Z,24.96
2023-04-20T05:28:23.509Z,24.94
2023-04-20T05:29:23.512Z,24.96
2023-04-20T05:30:23.524Z,24.94
2023-04-20T05:31:23.475Z,24.94
2023-04-20T05:32:23.522Z,24.94
2023-04-20T05:33:23.514Z,24.97
2023-04-20T05:34:23.442Z,24.96
2023-04-20T05:35:23.439Z,24.96
2023-04-20T05:36:23.474Z,24.94
2023-04-20T05:37:23.454Z,24.97
2023-04-20T05:38:23.726Z,24.94
2023-04-20T05:39:23.430Z,24.94
2023-04-20T05:40:23.400Z,24.97
2023-04-20T05:41:23.437Z,24.96
2023-04-20T05:42:23.451Z,24.96
2023-04-20T05:43:24.317Z,24.96
2023-04-20T05:44:23.380Z,24.94
2023-04-20T05:45:23.417Z,24.91
2023-04-20T05:46:23.388Z,24.93
2023-04-20T05:47:23.404Z,24.99
2023-04-20T05:48:23.404Z,25.05
2023-04-20T05:49:23.495Z,25.07
2023-04-20T05:50:23.547Z,25.11
2023-04-20T05:51:23.680Z,25.17
2023-04-20T05:52:24.411Z,25.20
2023-04-20T05:53:23.703Z,25.24
2023-04-20T05:54:23.714Z,25.27
2023-04-20T05:55:23.801Z,25.33
2023-04-20T05:56:23.798Z,25.34
2023-04-20T05:57:23.879Z,25.37
2023-04-20T05:58:23.870Z,25.40
2023-04-20T05:59:24.773Z,25.40
2023-04-20T06:00:26.126Z,25.42
2023-04-20T06:01:23.989Z,25.48
2023-04-20T06:02:24.090Z,25.47
2023-04-20T06:03:24.174Z,25.45
2023-04-20T06:04:24.455Z,25.49
2023-04-20T06:05:24.282Z,25.51
2023-04-20T06:06:24.179Z,25.51
2023-04-20T06:07:24.186Z,25.58
2023-04-20T06:08:24.193Z,25.60
2023-04-20T06:09:24.216Z,25.64
2023-04-20T06:10:24.247Z,25.65
2023-04-20T06:11:24.244Z,25.68
2023-04-20T06:12:26.233Z,25.71
2023-04-20T06:13:24.356Z,25.74
2023-04-20T06:14:24.305Z,25.76
2023-04-20T06:15:24.332Z,25.78
2023-04-20T06:16:24.406Z,25.81
2023-04-20T06:17:24.436Z,25.82
2023-04-20T06:18:24.329Z,25.84
2023-04-20T06:19:24.386Z,25.86
2023-04-20T06:20:24.409Z,25.86
2023-04-20T06:21:24.391Z,25.88
2023-04-20T06:22:24.350Z,25.92
2023-04-20T06:23:24.400Z,25.92
2023-04-20T06:24:24.394Z,25.93
2023-04-20T06:25:24.374Z,25.95
2023-04-20T06:26:24.367Z,25.96
2023-04-20T06:27:24.366Z,25.96
2023-04-20T06:28:24.351Z,25.99
2023-04-20T06:29:24.384Z,26.00
2023-04-20T06:30:24.396Z,26.03
2023-04-20T06:31:24.447Z,26.05
2023-04-20T06:32:24.374Z,26.06
2023-04-20T06:33:24.377Z,26.07
2023-04-20T06:34:24.417Z,26.10
2023-04-20T06:35:24.385Z,26.12
2023-04-20T06:36:24.358Z,26.15
2023-04-20T06:37:24.413Z,26.12
2023-04-20T06:38:24.345Z,26.16
2023-04-20T06:39:24.732Z,26.13
2023-04-20T06:40:24.378Z,26.19
2023-04-20T06:41:24.350Z,26.13
2023-04-20T06:42:24.373Z,26.13
2023-04-20T06:43:24.378Z,26.10
2023-04-20T06:44:24.776Z,26.10
2023-04-20T06:45:24.459Z,26.15
2023-04-20T06:46:24.566Z,26.15
2023-04-20T06:47:32.077Z,26.19
2023-04-20T06:48:32.169Z,26.20
2023-04-20T06:49:25.498Z,26.22
2023-04-20T06:50:24.884Z,26.25
2023-04-20T06:51:24.540Z,26.26
2023-04-20T06:52:24.479Z,26.27
2023-04-20T06:53:24.478Z,26.27
2023-04-20T06:54:24.446Z,26.30
2023-04-20T06:55:24.455Z,26.30
2023-04-20T06:56:24.462Z,26.32
2023-04-20T06:57:24.759Z,26.30
2023-04-20T06:58:24.404Z,26.32
2023-04-20T06:59:24.815Z,26.33
2023-04-20T07:00:24.735Z,26.33
2023-04-20T07:01:24.457Z,26.34
2023-04-20T07:02:24.426Z,26.34
2023-04-20T07:03:24.566Z,26.36
2023-04-20T07:04:24.536Z,26.37
2023-04-20T07:05:24.425Z,26.40
2023-04-20T07:06:24.750Z,26.40
2023-04-20T07:07:24.420Z,26.43
2023-04-20T07:08:25.302Z,26.40
2023-04-20T07:09:24.532Z,26.46
2023-04-20T07:10:24.581Z,26.44
2023-04-20T07:11:24.754Z,26.46
2023-04-20T07:12:24.768Z,26.44
2023-04-20T07:13:24.767Z,26.47
2023-04-20T07:14:25.273Z,26.50
2023-04-20T07:15:24.984Z,26.51
2023-04-20T07:16:24.944Z,26.53
2023-04-20T07:17:25.017Z,26.53
2023-04-20T07:18:25.264Z,26.50
2023-04-20T07:19:25.109Z,26.53
2023-04-20T07:20:25.193Z,26.54
2023-04-20T07:21:25.250Z,26.51
2023-04-20T07:22:25.290Z,26.56
2023-04-20T07:23:25.311Z,26.57
2023-04-20T07:24:25.551Z,26.57
2023-04-20T07:25:25.430Z,26.56
2023-04-20T07:26:25.787Z,26.57
2023-04-20T07:27:25.571Z,26.60
2023-04-20T07:28:25.582Z,26.58
2023-04-20T07:29:25.692Z,26.61
2023-04-20T07:30:25.752Z,26.58
2023-04-20T07:31:26.306Z,26.57
2023-04-20T07:32:25.843Z,26.36
2023-04-20T07:33:25.887Z,26.36
2023-04-20T07:34:25.823Z,26.26
2023-04-20T07:35:25.939Z,26.25
2023-04-20T07:36:26.247Z,26.17
2023-04-20T07:37:27.244Z,26.17
2023-04-20T07:38:26.265Z,26.13
2023-04-20T07:39:25.909Z,26.16
2023-04-20T07:40:25.968Z,26.20
2023-04-20T07:41:26.752Z,26.25
2023-04-20T07:42:25.892Z,26.25
2023-04-20T07:43:25.931Z,26.25
2023-04-20T07:44:26.053Z,26.27
2023-04-20T07:45:26.266Z,26.34
2023-04-20T07:46:26.230Z,26.39
2023-04-20T07:47:26.268Z,26.40
2023-04-20T07:48:26.284Z,26.46
2023-04-20T07:49:26.297Z,26.50
2023-04-20T07:50:26.408Z,26.53
2023-04-20T07:51:26.417Z,26.56
2023-04-20T07:52:26.526Z,26.61
2023-04-20T07:53:26.523Z,26.63
2023-04-20T07:54:26.521Z,26.61
2023-04-20T07:55:26.600Z,26.64
2023-04-20T07:56:26.636Z,26.65
2023-04-20T07:57:26.775Z,26.68
2023-04-20T07:58:26.696Z,26.70
2023-04-20T07:59:26.769Z,26.75
2023-04-20T08:00:26.784Z,26.71
2023-04-20T08:01:26.794Z,26.75
2023-04-20T08:02:27.007Z,26.78
2023-04-20T08:03:27.604Z,26.80
2023-04-20T08:04:27.315Z,26.83
2023-04-20T08:05:27.046Z,26.80
2023-04-20T08:06:26.985Z,26.83
2023-04-20T08:07:27.020Z,26.87
2023-04-20T08:08:27.050Z,26.90
2023-04-20T08:09:27.102Z,26.90
2023-04-20T08:10:27.108Z,26.93
2023-04-20T08:11:27.146Z,26.93
2023-04-20T08:12:27.158Z,26.94
2023-04-20T08:13:27.239Z,26.94
2023-04-20T08:14:27.237Z,26.91
2023-04-20T08:15:27.242Z,26.91
2023-04-20T08:16:27.291Z,26.93
2023-04-20T08:17:27.318Z,26.93
2023-04-20T08:18:27.252Z,26.94
2023-04-20T08:19:27.571Z,26.95
2023-04-20T08:20:27.318Z,26.98
2023-04-20T08:21:27.319Z,27.01
2023-04-20T08:22:27.324Z,26.99
2023-04-20T08:23:27.322Z,27.02
2023-04-20T08:24:27.359Z,27.02
2023-04-20T08:25:27.462Z,27.04
2023-04-20T08:26:27.401Z,26.99
2023-04-20T08:27:27.369Z,27.02
2023-04-20T08:28:33.502Z,27.04
2023-04-20T08:29:28.396Z,27.04
2023-04-20T08:30:27.409Z,27.02
2023-04-20T08:31:27.866Z,27.02
2023-04-20T08:32:27.405Z,27.01
2023-04-20T08:33:27.498Z,26.97
2023-04-20T08:34:27.353Z,26.91
2023-04-20T08:35:27.360Z,26.84
2023-04-20T08:36:27.332Z,26.83
2023-04-20T08:37:27.332Z,26.84
2023-04-20T08:38:33.790Z,26.78
2023-04-20T08:39:28.406Z,26.77
2023-04-20T08:40:27.348Z,26.75
2023-04-20T08:41:27.315Z,26.74
2023-04-20T08:42:28.370Z,26.74
2023-04-20T08:43:27.319Z,26.73
2023-04-20T08:44:27.381Z,26.68
2023-04-20T08:45:27.324Z,26.67
2023-04-20T08:46:27.311Z,26.53
2023-04-20T08:47:27.318Z,26.32
2023-04-20T08:48:27.299Z,26.17
2023-04-20T08:49:27.295Z,26.05
2023-04-20T08:50:27.341Z,25.91
2023-04-20T08:51:27.302Z,25.84
2023-04-20T08:52:27.330Z,25.78
2023-04-20T08:53:27.290Z,25.78
2023-04-20T08:54:27.356Z,25.78
2023-04-20T08:55:27.353Z,25.81
2023-04-20T08:56:27.385Z,25.88
2023-04-20T08:57:27.475Z,25.92
2023-04-20T08:58:27.460Z,26.00
2023-04-20T08:59:27.476Z,26.06
2023-04-20T09:00:27.477Z,26.13
2023-04-20T09:01:34.663Z,26.20
2023-04-20T09:02:28.633Z,26.23
2023-04-20T09:03:27.690Z,26.30
2023-04-20T09:04:27.728Z,26.34
2023-04-20T09:05:27.730Z,26.39
2023-04-20T09:06:27.463Z,26.40
2023-04-20T09:07:27.637Z,26.44
2023-04-20T09:08:27.541Z,26.47
2023-04-20T09:09:27.602Z,26.47
2023-04-20T09:10:27.602Z,26.53
2023-04-20T09:11:27.670Z,26.53
2023-04-20T09:12:27.687Z,26.56
2023-04-20T09:13:27.683Z,26.56
2023-04-20T09:14:27.687Z,26.56
2023-04-20T09:15:27.739Z,26.57
2023-04-20T09:16:27.790Z,26.58
2023-04-20T09:17:27.754Z,26.58
2023-04-20T09:18:27.804Z,26.64
2023-04-20T09:19:27.774Z,26.60
2023-04-20T09:20:27.770Z,26.64
2023-04-20T09:21:27.805Z,26.61
2023-04-20T09:22:27.779Z,26.61
2023-04-20T09:23:27.801Z,26.65
2023-04-20T09:24:27.804Z,26.65
2023-04-20T09:25:28.996Z,26.70
2023-04-20T09:26:27.815Z,26.75
2023-04-20T09:27:27.825Z,26.74
2023-04-20T09:28:28.334Z,26.78
2023-04-20T09:29:27.843Z,26.81
2023-04-20T09:30:27.841Z,26.84
2023-04-20T09:31:27.970Z,26.74
2023-04-20T09:32:27.880Z,26.81
2023-04-20T09:33:28.333Z,26.80
2023-04-20T09:34:27.859Z,26.81
2023-04-20T09:35:28.356Z,26.84
2023-04-20T09:36:28.402Z,26.90
2023-04-20T09:37:28.290Z,26.91
2023-04-20T09:38:28.291Z,26.94
2023-04-20T09:39:28.330Z,26.97
2023-04-20T09:40:27.857Z,26.99
2023-04-20T09:41:28.308Z,27.01
2023-04-20T09:42:27.887Z,27.01
2023-04-20T09:43:28.382Z,26.99
2023-04-20T09:44:27.821Z,26.99
2023-04-20T09:45:28.313Z,27.04
2023-04-20T09:46:27.875Z,27.01
2023-04-20T09:47:27.930Z,26.99
2023-04-20T09:48:28.176Z,26.99
2023-04-20T09:49:27.856Z,27.02
2023-04-20T09:50:38.241Z,27.02
2023-04-20T09:51:28.805Z,27.01
2023-04-20T09:52:27.835Z,27.02
2023-04-20T09:53:27.833Z,27.06
2023-04-20T09:54:27.781Z,27.02
2023-04-20T09:55:27.813Z,27.04
2023-04-20T09:56:27.819Z,27.02
2023-04-20T09:57:27.776Z,27.01
2023-04-20T09:58:27.780Z,27.01
2023-04-20T09:59:27.813Z,27.01
2023-04-20T10:00:27.780Z,27.01
2023-04-20T10:01:27.782Z,27.02
2023-04-20T10:02:28.014Z,27.04
2023-04-20T10:03:27.830Z,27.08
2023-04-20T10:04:27.823Z,27.09
2023-04-20T10:05:28.321Z,27.08
2023-04-20T10:06:27.714Z,27.08
2023-04-20T10:07:27.685Z,27.05
2023-04-20T10:08:27.689Z,27.09
2023-04-20T10:09:27.690Z,27.12
2023-04-20T10:10:27.692Z,27.09
2023-04-20T10:11:31.508Z,27.11
2023-04-20T10:12:28.674Z,27.14
2023-04-20T10:13:27.656Z,27.15
2023-04-20T10:14:27.672Z,27.16
2023-04-20T10:15:27.847Z,27.18
2023-04-20T10:16:27.664Z,27.21
2023-04-20T10:17:27.736Z,27.24
2023-04-20T10:18:27.817Z,27.25
2023-04-20T10:19:27.654Z,27.26
2023-04-20T10:20:27.610Z,27.28
2023-04-20T10:21:27.585Z,27.25
2023-04-20T10:22:27.823Z,27.29
2023-04-20T10:23:27.570Z,27.29
2023-04-20T10:24:27.576Z,27.32
2023-04-20T10:25:27.901Z,27.32
2023-04-20T10:26:27.589Z,27.35
2023-04-20T10:27:27.535Z,27.36
2023-04-20T10:28:27.554Z,27.35
2023-04-20T10:29:27.533Z,27.35
2023-04-20T10:30:27.566Z,27.38
2023-04-20T10:31:27.559Z,27.41
2023-04-20T10:32:27.742Z,27.41
2023-04-20T10:33:27.635Z,27.42
2023-04-20T10:34:27.714Z,27.41
2023-04-20T10:35:27.838Z,27.43
2023-04-20T10:36:28.335Z,27.46
2023-04-20T10:37:27.932Z,27.45
2023-04-20T10:38:27.987Z,27.46
2023-04-20T10:39:28.808Z,27.49
2023-04-20T10:40:28.093Z,27.46
2023-04-20T10:41:28.153Z,27.52
2023-04-20T10:42:28.222Z,27.49
2023-04-20T10:43:28.582Z,27.49
2023-04-20T10:44:28.329Z,27.52
2023-04-20T10:45:28.360Z,27.52
2023-04-20T10:46:28.502Z,27.54
2023-04-20T10:47:28.516Z,27.56
2023-04-20T10:48:28.570Z,27.57
2023-04-20T10:49:28.575Z,27.59
2023-04-20T10:50:28.640Z,27.57
2023-04-20T10:51:28.656Z,27.60
2023-04-20T10:52:28.717Z,27.59
2023-04-20T10:53:28.765Z,27.57
2023-04-20T10:54:28.893Z,27.63
2023-04-20T10:55:28.877Z,27.63
2023-04-20T10:56:28.892Z,27.62
2023-04-20T10:57:28.908Z,27.63
2023-04-20T10:58:28.949Z,27.63
2023-04-20T10:59:28.986Z,27.64
2023-04-20T11:00:29.026Z,27.66
2023-04-20T11:01:29.219Z,27.67
2023-04-20T11:02:29.251Z,27.69
2023-04-20T11:03:29.516Z,27.70
2023-04-20T11:04:29.210Z,27.69
2023-04-20T11:05:29.204Z,27.67
2023-04-20T11:06:29.261Z,27.67
2023-04-20T11:07:29.374Z,27.67
2023-04-20T11:08:29.315Z,27.72
2023-04-20T11:09:29.322Z,27.70
2023-04-20T11:10:29.849Z,27.69
2023-04-20T11:11:29.880Z,27.72
2023-04-20T11:12:29.855Z,27.73
2023-04-20T11:13:29.504Z,27.73
2023-04-20T11:14:29.871Z,27.72
2023-04-20T11:15:29.600Z,27.72
2023-04-20T11:16:44.328Z,27.73
2023-04-20T11:17:30.727Z,27.73
2023-04-20T11:18:29.843Z,27.72
2023-04-20T11:19:29.852Z,27.72
2023-04-20T11:20:29.546Z,27.73
2023-04-20T11:21:29.540Z,27.73
2023-04-20T11:22:29.571Z,27.73
2023-04-20T11:23:29.569Z,27.73
2023-04-20T11:24:29.522Z,27.73
2023-04-20T11:25:29.839Z,27.74
2023-04-20T11:26:29.541Z,27.74
2023-04-20T11:27:29.543Z,27.74
2023-04-20T11:28:29.515Z,27.77
2023-04-20T11:29:29.526Z,27.76
2023-04-20T11:30:29.515Z,27.77
2023-04-20T11:31:29.573Z,27.76
2023-04-20T11:32:29.802Z,27.79
2023-04-20T11:33:29.607Z,27.79
2023-04-20T11:34:29.614Z,27.77
2023-04-20T11:35:29.645Z,27.80
2023-04-20T11:36:29.728Z,27.79
2023-04-20T11:37:29.749Z,27.80
2023-04-20T11:39:48.666Z,27.77
2023-04-20T11:40:48.662Z,27.77
2023-04-20T11:41:48.695Z,27.79
2023-04-20T11:42:48.645Z,27.79
2023-04-20T11:43:48.647Z,27.79
2023-04-20T11:44:48.648Z,27.82
2023-04-20T11:45:48.689Z,27.80
2023-04-20T11:46:48.683Z,27.83
2023-04-20T11:47:48.663Z,27.82
2023-04-20T11:48:48.640Z,27.84
2023-04-20T11:49:48.647Z,27.83
2023-04-20T11:50:48.712Z,27.86
2023-04-20T11:51:48.628Z,27.84
2023-04-20T11:52:48.580Z,27.86
2023-04-20T11:53:48.630Z,27.84
2023-04-20T11:54:48.630Z,27.87
2023-04-20T11:55:48.588Z,27.86
2023-04-20T11:56:48.613Z,27.83
2023-04-20T11:57:48.600Z,27.83
2023-04-20T11:58:48.557Z,27.86
2023-04-20T11:59:48.522Z,27.87
2023-04-20T12:00:48.547Z,27.86
2023-04-20T12:01:48.589Z,27.84
2023-04-20T12:02:48.754Z,27.90
2023-04-20T12:03:48.621Z,27.89
2023-04-20T12:04:48.572Z,27.87
2023-04-20T12:05:48.634Z,27.89
2023-04-20T12:06:48.495Z,27.89
2023-04-20T12:07:48.515Z,27.90
2023-04-20T12:08:48.508Z,27.89
2023-04-20T12:09:48.474Z,27.89
2023-04-20T12:10:48.463Z,27.89
2023-04-20T12:11:48.479Z,27.91
2023-04-20T12:12:48.489Z,27.89
2023-04-20T12:13:48.439Z,27.91
2023-04-20T12:14:48.420Z,27.93
2023-04-20T12:15:48.500Z,27.93
2023-04-20T12:16:48.451Z,27.91
2023-04-20T12:17:48.446Z,27.90
2023-04-20T12:18:48.494Z,27.90
2023-04-20T12:19:48.430Z,27.93
2023-04-20T12:20:48.395Z,27.91
2023-04-20T12:21:48.417Z,27.91
2023-04-20T12:22:48.422Z,27.93
2023-04-20T12:23:48.403Z,27.91
2023-04-20T12:24:48.368Z,27.91
2023-04-20T12:25:48.375Z,27.96
2023-04-20T12:26:48.372Z,27.91
2023-04-20T12:27:50.042Z,27.96
2023-04-20T12:28:48.369Z,27.93
2023-04-20T12:29:48.351Z,27.93
2023-04-20T12:30:48.322Z,27.93
2023-04-20T12:31:48.335Z,27.91
2023-04-20T12:32:48.326Z,27.91
2023-04-20T12:33:48.330Z,27.93
2023-04-20T12:34:48.281Z,27.91
2023-04-20T12:35:48.283Z,27.93
2023-04-20T12:36:48.269Z,27.91
2023-04-20T12:37:48.307Z,27.90
2023-04-20T12:38:48.299Z,27.91
2023-04-20T12:39:48.262Z,27.94
2023-04-20T12:40:48.270Z,27.93
2023-04-20T12:41:48.290Z,27.96
2023-04-20T12:42:48.284Z,27.96
2023-04-20T12:43:48.236Z,27.96
2023-04-20T12:44:48.229Z,27.97
2023-04-20T12:45:48.233Z,27.97
2023-04-20T12:46:48.324Z,27.99
2023-04-20T12:47:48.243Z,27.99
2023-04-20T12:48:48.278Z,27.99
2023-04-20T12:49:48.198Z,28.00
2023-04-20T12:50:48.158Z,28.01
2023-04-20T12:51:48.185Z,28.01
2023-04-20T12:52:48.200Z,28.00
2023-04-20T12:53:48.215Z,28.01